createdAt,value
2023-03-18T00:01:43.035Z,100430.88
2023-03-18T00:04:12.775Z,100428.97
2023-03-18T00:06:40.879Z,100435.22
2023-03-18T00:09:08.939Z,100435.69
2023-03-18T00:11:37.779Z,100434.13
2023-03-18T00:14:06.050Z,100436.69
2023-03-18T00:16:35.125Z,100442.09
2023-03-18T00:19:04.156Z,100445.06
2023-03-18T00:21:33.570Z,100441.94
2023-03-18T00:24:01.748Z,100443.44
2023-03-18T00:26:30.099Z,100446.63
2023-03-18T00:28:59.251Z,100438.69
2023-03-18T00:31:29.858Z,100440.50
2023-03-18T00:33:59.194Z,100430.50
2023-03-18T00:36:27.143Z,100436.38
2023-03-18T00:38:57.930Z,100429.94
2023-03-18T00:41:26.723Z,100424.63
2023-03-18T00:43:57.461Z,100429.88
2023-03-18T00:46:27.066Z,100434.69
2023-03-18T00:48:56.610Z,100437.88
2023-03-18T00:51:26.564Z,100443.38
2023-03-18T00:53:58.798Z,100444.66
2023-03-18T00:56:30.895Z,100440.50
2023-03-18T00:59:00.092Z,100447.41
2023-03-18T01:01:31.443Z,100442.06
2023-03-18T01:04:01.049Z,100439.81
2023-03-18T01:06:33.977Z,100441.00
2023-03-18T01:09:05.743Z,100437.56
2023-03-18T01:11:34.446Z,100445.44
2023-03-18T01:14:03.602Z,100436.94
2023-03-18T01:16:31.910Z,100419.44
2023-03-18T01:19:00.135Z,100426.38
2023-03-18T01:21:28.432Z,100424.13
2023-03-18T01:24:00.929Z,100430.81
2023-03-18T01:26:31.788Z,100425.84
2023-03-18T01:29:01.241Z,100437.53
2023-03-18T01:31:31.342Z,100422.16
2023-03-18T01:34:05.115Z,100425.03
2023-03-18T01:37:08.752Z,100414.59
2023-03-18T01:39:39.742Z,100412.13
2023-03-18T01:42:18.177Z,100405.50
2023-03-18T01:44:47.162Z,100404.66
2023-03-18T01:47:17.363Z,100408.44
2023-03-18T01:49:52.947Z,100395.94
2023-03-18T01:52:23.826Z,100404.84
2023-03-18T01:54:56.607Z,100408.00
2023-03-18T01:57:26.191Z,100406.47
2023-03-18T01:59:57.383Z,100403.75
2023-03-18T02:02:27.072Z,100395.88
2023-03-18T02:04:57.634Z,100402.94
2023-03-18T02:07:28.685Z,100403.34
2023-03-18T02:09:59.841Z,100401.63
2023-03-18T02:12:33.496Z,100408.84
2023-03-18T02:15:03.880Z,100409.69
2023-03-18T02:17:36.764Z,100399.44
2023-03-18T02:20:17.254Z,100393.13
2023-03-18T02:22:50.669Z,100389.78
2023-03-18T02:25:29.541Z,100389.78
2023-03-18T02:28:03.369Z,100387.69
2023-03-18T02:30:36.420Z,100389.59
2023-03-18T02:33:07.455Z,100389.59
2023-03-18T02:35:36.352Z,100387.84
2023-03-18T02:38:04.829Z,100393.44
2023-03-18T02:40:35.179Z,100395.38
2023-03-18T02:43:27.209Z,100389.78
2023-03-18T02:46:20.267Z,100391.84
2023-03-18T02:49:14.764Z,100390.56
2023-03-18T02:51:42.934Z,100397.47
2023-03-18T02:54:13.221Z,100395.81
2023-03-18T02:56:43.069Z,100403.22
2023-03-18T02:59:13.250Z,100398.25
2023-03-18T03:01:43.748Z,100400.94
2023-03-18T03:04:12.289Z,100395.31
2023-03-18T03:06:41.474Z,100401.72
2023-03-18T03:09:11.197Z,100402.53
2023-03-18T03:11:39.168Z,100401.25
2023-03-18T03:14:16.350Z,100398.41
2023-03-18T03:16:46.619Z,100402.53
2023-03-18T03:19:15.817Z,100401.25
2023-03-18T03:21:43.923Z,100402.91
2023-03-18T03:24:12.274Z,100403.38
2023-03-18T03:26:41.008Z,100410.44
2023-03-18T03:29:09.536Z,100400.00
2023-03-18T03:31:38.873Z,100405.41
2023-03-18T03:34:07.767Z,100400.03
2023-03-18T03:36:36.700Z,100406.31
2023-03-18T03:39:06.162Z,100406.69
2023-03-18T03:41:36.413Z,100406.22
2023-03-18T03:44:04.975Z,100411.28
2023-03-18T03:46:33.009Z,100408.34
2023-03-18T03:49:02.757Z,100412.94
2023-03-18T03:51:30.730Z,100414.81
2023-03-18T03:53:59.028Z,100413.38
2023-03-18T03:57:41.616Z,100416.31
2023-03-18T04:00:14.192Z,100416.94
2023-03-18T04:02:43.433Z,100410.06
2023-03-18T04:05:16.938Z,100416.31
2023-03-18T04:07:46.658Z,100418.00
2023-03-18T04:10:17.543Z,100422.66
2023-03-18T04:12:46.940Z,100417.22
2023-03-18T04:15:16.459Z,100416.78
2023-03-18T04:17:46.384Z,100416.78
2023-03-18T04:20:19.612Z,100417.22
2023-03-18T04:22:48.655Z,100427.00
2023-03-18T04:25:19.055Z,100420.53
2023-03-18T04:27:47.721Z,100424.00
2023-03-18T04:30:17.915Z,100422.59
2023-03-18T04:32:59.625Z,100425.06
2023-03-18T04:35:29.389Z,100430.13
2023-03-18T04:37:57.807Z,100425.31
2023-03-18T04:40:25.819Z,100431.09
2023-03-18T04:42:53.951Z,100428.38
2023-03-18T04:45:25.915Z,100426.50
2023-03-18T04:47:57.579Z,100420.00
2023-03-18T04:50:27.910Z,100422.97
2023-03-18T04:52:57.989Z,100426.72
2023-03-18T04:55:29.424Z,100427.94
2023-03-18T04:57:58.726Z,100425.81
2023-03-18T05:00:29.250Z,100422.50
2023-03-18T05:03:10.549Z,100429.56
2023-03-18T05:05:39.010Z,100432.84
2023-03-18T05:08:10.881Z,100427.25
2023-03-18T05:10:40.182Z,100428.09
2023-03-18T05:13:10.946Z,100426.56
2023-03-18T05:15:39.089Z,100422.22
2023-03-18T05:18:08.450Z,100422.00
2023-03-18T05:20:36.509Z,100418.44
2023-03-18T05:23:05.933Z,100411.72
2023-03-18T05:25:56.808Z,100409.41
2023-03-18T05:28:28.122Z,100393.56
2023-03-18T05:31:12.235Z,100400.06
2023-03-18T05:33:43.014Z,100400.06
2023-03-18T05:36:13.216Z,100397.34
2023-03-18T05:38:52.060Z,100400.88
2023-03-18T05:41:21.598Z,100398.97
2023-03-18T05:43:49.666Z,100401.47
2023-03-18T05:46:18.099Z,100411.06
2023-03-18T05:49:02.589Z,100417.66
2023-03-18T05:51:37.710Z,100407.28
2023-03-18T05:54:06.019Z,100404.34
2023-03-18T05:56:43.316Z,100409.78
2023-03-18T05:59:14.304Z,100411.06
2023-03-18T06:01:53.968Z,100398.09
2023-03-18T06:04:22.537Z,100393.72
2023-03-18T06:06:53.924Z,100404.34
2023-03-18T06:09:22.270Z,100412.69
2023-03-18T06:11:51.732Z,100414.38
2023-03-18T06:14:19.803Z,100415.41
2023-03-18T06:16:48.185Z,100414.38
2023-03-18T06:19:16.262Z,100411.50
2023-03-18T06:21:44.272Z,100415.56
2023-03-18T06:24:13.355Z,100410.13
2023-03-18T06:26:41.564Z,100411.81
2023-03-18T06:29:12.095Z,100420.97
2023-03-18T06:31:40.189Z,100420.97
2023-03-18T06:34:10.750Z,100423.94
2023-03-18T06:36:40.275Z,100415.81
2023-03-18T06:39:41.393Z,100421.13
2023-03-18T06:42:11.461Z,100424.69
2023-03-18T06:44:50.805Z,100424.31
2023-03-18T06:47:25.099Z,100432.66
2023-03-18T06:49:56.834Z,100429.44
2023-03-18T06:52:30.872Z,100436.28
2023-03-18T06:55:04.186Z,100441.72
2023-03-18T06:57:32.721Z,100439.38
2023-03-18T07:00:02.127Z,100435.00
2023-03-18T07:02:30.255Z,100437.72
2023-03-18T07:05:00.246Z,100437.56
2023-03-18T07:07:54.388Z,100445.09
2023-03-18T07:10:25.524Z,100442.84
2023-03-18T07:12:57.185Z,100443.69
2023-03-18T07:15:27.157Z,100447.44
2023-03-18T07:18:00.484Z,100452.41
2023-03-18T07:20:28.830Z,100463.34
2023-03-18T07:22:57.626Z,100461.00
2023-03-18T07:25:25.673Z,100457.69
2023-03-18T07:27:54.264Z,100457.47
2023-03-18T07:30:23.007Z,100460.63
2023-03-18T07:32:52.415Z,100464.53
2023-03-18T07:35:20.672Z,100466.66
2023-03-18T07:37:48.893Z,100466.44
2023-03-18T07:40:17.768Z,100465.00
2023-03-18T07:42:45.715Z,100462.53
2023-03-18T07:45:13.931Z,100469.81
2023-03-18T07:47:42.004Z,100466.28
2023-03-18T07:50:36.881Z,100464.16
2023-03-18T07:53:04.909Z,100473.75
2023-03-18T07:55:33.214Z,100473.13
2023-03-18T07:58:01.505Z,100481.25
2023-03-18T08:00:29.499Z,100473.66
2023-03-18T08:02:57.956Z,100470.13
2023-03-18T08:05:25.954Z,100465.00
2023-03-18T08:07:55.361Z,100475.38
2023-03-18T08:10:24.028Z,100472.09
2023-03-18T08:12:53.901Z,100473.75
2023-03-18T08:15:23.063Z,100484.50
2023-03-18T08:17:51.161Z,100473.75
2023-03-18T08:20:19.325Z,100479.00
2023-03-18T08:22:47.267Z,100480.44
2023-03-18T08:25:17.355Z,100476.91
2023-03-18T08:27:45.565Z,100472.91
2023-03-18T08:30:15.129Z,100471.47
2023-03-18T08:32:43.282Z,100475.84
2023-03-18T08:35:11.708Z,100472.84
2023-03-18T08:37:39.730Z,100478.25
2023-03-18T08:40:09.863Z,100468.31
2023-03-18T08:42:39.303Z,100481.41
2023-03-18T08:45:08.510Z,100477.53
2023-03-18T08:47:36.660Z,100470.56
2023-03-18T08:50:05.909Z,100471.19
2023-03-18T08:52:34.010Z,100473.22
2023-03-18T08:55:02.353Z,100476.97
2023-03-18T08:57:30.462Z,100463.19
2023-03-18T08:59:59.978Z,100465.47
2023-03-18T09:02:28.675Z,100466.91
2023-03-18T09:04:56.664Z,100467.25
2023-03-18T09:07:24.810Z,100464.41
2023-03-18T09:09:54.172Z,100472.69
2023-03-18T09:12:22.653Z,100467.72
2023-03-18T09:14:50.632Z,100467.25
2023-03-18T09:17:20.010Z,100468.94
2023-03-18T09:19:48.163Z,100465.38
2023-03-18T09:22:16.768Z,100470.44
2023-03-18T09:24:44.775Z,100467.72
2023-03-18T09:27:12.892Z,100480.66
2023-03-18T09:29:41.684Z,100478.34
2023-03-18T09:32:09.711Z,100482.34
2023-03-18T09:34:39.073Z,100473.75
2023-03-18T09:37:07.167Z,100468.94
2023-03-18T09:39:35.099Z,100469.50
2023-03-18T09:42:14.577Z,100470.34
2023-03-18T09:44:43.681Z,100471.78
2023-03-18T09:47:29.354Z,100469.25
2023-03-18T09:50:12.838Z,100467.13
2023-03-18T09:52:45.080Z,100467.13
2023-03-18T09:55:22.375Z,100477.31
2023-03-18T09:57:54.127Z,100472.25
2023-03-18T10:00:26.099Z,100475.72
2023-03-18T10:02:59.044Z,100478.00
2023-03-18T10:05:33.431Z,100473.78
2023-03-18T10:08:07.944Z,100473.47
2023-03-18T10:10:40.156Z,100478.50
2023-03-18T10:13:17.477Z,100477.91
2023-03-18T10:15:49.109Z,100476.34
2023-03-18T10:18:25.143Z,100477.31
2023-03-18T10:21:04.112Z,100477.91
2023-03-18T10:23:43.681Z,100479.56
2023-03-18T10:26:17.742Z,100483.72
2023-03-18T10:29:04.727Z,100475.13
2023-03-18T10:31:45.806Z,100485.97
2023-03-18T10:34:17.804Z,100486.19
2023-03-18T10:36:51.909Z,100480.75
2023-03-18T10:39:23.488Z,100481.63
2023-03-18T10:41:55.041Z,100489.31
2023-03-18T10:44:27.498Z,100489.88
2023-03-18T10:47:01.778Z,100496.53
2023-03-18T10:49:32.844Z,100490.63
2023-03-18T10:52:07.761Z,100483.56
2023-03-18T10:54:41.501Z,100493.50
2023-03-18T10:57:15.221Z,100481.72
2023-03-18T10:59:45.399Z,100495.13
2023-03-18T11:02:20.070Z,100493.75
2023-03-18T11:04:51.090Z,100481.84
2023-03-18T11:07:23.749Z,100489.94
2023-03-18T11:09:51.940Z,100488.06
2023-03-18T11:12:25.663Z,100485.47
2023-03-18T11:14:54.746Z,100501.44
2023-03-18T11:17:27.388Z,100492.38
2023-03-18T11:20:05.689Z,100493.59
2023-03-18T11:22:36.731Z,100491.47
2023-03-18T11:25:07.145Z,100486.03
2023-03-18T11:27:39.622Z,100490.78
2023-03-18T11:30:32.706Z,100490.88
2023-03-18T11:33:05.938Z,100489.22
2023-03-18T11:35:40.423Z,100489.09
2023-03-18T11:38:21.210Z,100491.22
2023-03-18T11:40:49.195Z,100491.94
2023-03-18T11:43:20.959Z,100491.34
2023-03-18T11:45:54.006Z,100488.97
2023-03-18T11:48:36.719Z,100489.91
2023-03-18T11:51:39.616Z,100484.72
2023-03-18T11:54:24.577Z,100494.19
2023-03-18T11:56:57.295Z,100497.25
2023-03-18T11:59:34.345Z,100488.25
2023-03-18T12:02:24.886Z,100491.94
2023-03-18T12:05:25.986Z,100492.75
2023-03-18T12:08:04.552Z,100490.03
2023-03-18T12:10:37.425Z,100492.84
2023-03-18T12:13:19.632Z,100479.34
2023-03-18T12:15:55.488Z,100478.03
2023-03-18T12:18:35.830Z,100482.03
2023-03-18T12:21:16.307Z,100476.06
2023-03-18T12:23:58.315Z,100474.06
2023-03-18T12:26:35.213Z,100481.31
2023-03-18T12:29:24.178Z,100484.03
2023-03-18T12:31:59.498Z,100478.19
2023-03-18T12:35:02.602Z,100491.91
2023-03-18T12:37:41.975Z,100488.94
2023-03-18T12:40:34.936Z,100491.28
2023-03-18T12:43:24.996Z,100478.78
2023-03-18T12:45:59.053Z,100485.06
2023-03-18T12:48:43.600Z,100483.84
2023-03-18T12:51:16.344Z,100479.66
2023-03-18T12:53:47.803Z,100485.31
2023-03-18T12:56:19.827Z,100476.38
2023-03-18T12:58:53.085Z,100480.41
2023-03-18T13:01:25.746Z,100489.88
2023-03-18T13:04:01.550Z,100497.47
2023-03-18T13:06:35.463Z,100490.22
2023-03-18T13:09:08.519Z,100494.78
2023-03-18T13:12:05.352Z,100489.19
2023-03-18T13:14:47.195Z,100487.69
2023-03-18T13:17:25.020Z,100495.53
2023-03-18T13:19:53.360Z,100495.63
2023-03-18T13:22:37.739Z,100496.09
2023-03-18T13:25:19.397Z,100500.28
2023-03-18T13:27:59.519Z,100500.78
2023-03-18T13:30:37.291Z,100498.75
2023-03-18T13:33:31.261Z,100495.44
2023-03-18T13:36:23.528Z,100500.53
2023-03-18T13:39:10.158Z,100502.69
2023-03-18T13:42:07.797Z,100497.28
2023-03-18T13:44:43.439Z,100505.28
2023-03-18T13:47:18.842Z,100505.75
2023-03-18T13:49:47.867Z,100504.34
2023-03-18T13:52:27.110Z,100505.59
2023-03-18T13:54:55.462Z,100507.50
2023-03-18T13:57:37.176Z,100514.16
2023-03-18T14:00:33.252Z,100509.16
2023-03-18T14:03:30.582Z,100527.28
2023-03-18T14:06:47.547Z,100521.19
2023-03-18T14:09:34.958Z,100524.19
2023-03-18T14:12:22.720Z,100520.97
2023-03-18T14:15:03.551Z,100522.38
2023-03-18T14:17:42.378Z,100516.94
2023-03-18T14:20:37.671Z,100515.47
2023-03-18T14:23:36.848Z,100530.69
2023-03-18T14:26:08.125Z,100529.53
2023-03-18T14:28:47.134Z,100530.94
2023-03-18T14:31:34.350Z,100530.94
2023-03-18T14:34:19.832Z,100535.06
2023-03-18T14:37:19.317Z,100524.50
2023-03-18T14:39:52.652Z,100523.06
2023-03-18T14:42:31.535Z,100522.63
2023-03-18T14:45:06.724Z,100507.88
2023-03-18T14:47:42.944Z,100520.91
2023-03-18T14:50:18.173Z,100514.94
2023-03-18T14:52:54.486Z,100511.69
2023-03-18T14:55:27.244Z,100519.72
2023-03-18T14:57:55.346Z,100522.88
2023-03-18T15:00:24.916Z,100508.88
2023-03-18T15:03:01.574Z,100508.88
2023-03-18T15:05:35.024Z,100513.31
2023-03-18T15:08:10.749Z,100519.28
2023-03-18T15:10:38.852Z,100522.78
2023-03-18T15:13:08.510Z,100512.66
2023-03-18T15:15:37.061Z,100524.03
2023-03-18T15:18:18.697Z,100522.94
2023-03-18T15:20:52.259Z,100509.53
2023-03-18T15:23:29.643Z,100510.19
2023-03-18T15:25:58.283Z,100507.72
2023-03-18T15:28:29.824Z,100513.69
2023-03-18T15:30:59.883Z,100512.50
2023-03-18T15:33:31.796Z,100518.38
2023-03-18T15:36:06.263Z,100517.63
2023-03-18T15:38:35.750Z,100521.69
2023-03-18T15:41:06.816Z,100519.53
2023-03-18T15:43:42.226Z,100515.34
2023-03-18T15:46:18.127Z,100513.25
2023-03-18T15:48:54.503Z,100517.81
2023-03-18T15:51:29.966Z,100517.94
2023-03-18T15:54:05.852Z,100517.13
2023-03-18T15:56:36.316Z,100522.38
2023-03-18T15:59:09.174Z,100521.38
2023-03-18T16:01:37.475Z,100523.44
2023-03-18T16:04:10.321Z,100523.72
2023-03-18T16:06:38.716Z,100517.84
2023-03-18T16:09:18.330Z,100517.13
2023-03-18T16:11:49.567Z,100522.66
2023-03-18T16:14:20.618Z,100514.22
2023-03-18T16:16:48.999Z,100524.63
2023-03-18T16:19:27.824Z,100525.72
2023-03-18T16:21:57.505Z,100526.06
2023-03-18T16:24:30.007Z,100529.00
2023-03-18T16:26:58.305Z,100541.91
2023-03-18T16:29:30.894Z,100524.50
2023-03-18T16:31:59.564Z,100532.72
2023-03-18T16:34:28.211Z,100535.50
2023-03-18T16:36:56.606Z,100536.00
2023-03-18T16:39:33.988Z,100542.78
2023-03-18T16:42:02.590Z,100547.16
2023-03-18T16:44:30.960Z,100530.03
2023-03-18T16:47:04.874Z,100534.19
2023-03-18T16:49:36.661Z,100536.72
2023-03-18T16:52:05.171Z,100544.50
2023-03-18T16:54:35.058Z,100547.56
2023-03-18T16:57:05.621Z,100549.91
2023-03-18T16:59:36.530Z,100557.22
2023-03-18T17:02:05.822Z,100556.59
2023-03-18T17:04:36.211Z,100559.31
2023-03-18T17:07:06.258Z,100565.69
2023-03-18T17:09:35.962Z,100564.72
2023-03-18T17:12:07.740Z,100567.25
2023-03-18T17:14:38.789Z,100569.16
2023-03-18T17:17:12.483Z,100571.97
2023-03-18T17:19:41.292Z,100580.56
2023-03-18T17:22:21.855Z,100582.50
2023-03-18T17:24:51.870Z,100577.88
2023-03-18T17:27:23.842Z,100598.19
2023-03-18T17:29:53.658Z,100593.75
2023-03-18T17:32:30.625Z,100601.03
2023-03-18T17:34:58.768Z,100596.97
2023-03-18T17:37:26.897Z,100601.84
2023-03-18T17:39:56.634Z,100610.44
2023-03-18T17:42:30.339Z,100614.59
2023-03-18T17:45:03.440Z,100614.69
2023-03-18T17:47:31.769Z,100616.59
2023-03-18T17:50:00.711Z,100614.91
2023-03-18T17:52:28.874Z,100617.81
2023-03-18T17:54:58.530Z,100619.03
2023-03-18T17:57:27.930Z,100624.59
2023-03-18T17:59:57.147Z,100634.47
2023-03-18T18:02:25.648Z,100626.78
2023-03-18T18:04:56.768Z,100631.78
2023-03-18T18:07:25.433Z,100635.22
2023-03-18T18:09:53.836Z,100643.53
2023-03-18T18:12:25.438Z,100646.25
2023-03-18T18:14:53.555Z,100652.66
2023-03-18T18:17:22.776Z,100653.13
2023-03-18T18:19:50.977Z,100655.38
2023-03-18T18:22:22.323Z,100654.44
2023-03-18T18:24:52.261Z,100662.72
2023-03-18T18:27:20.679Z,100662.13
2023-03-18T18:29:50.276Z,100661.78
2023-03-18T18:32:19.164Z,100662.38
2023-03-18T18:34:47.169Z,100668.03
2023-03-18T18:37:15.510Z,100671.34
2023-03-18T18:39:43.708Z,100675.63
2023-03-18T18:42:14.206Z,100677.38
2023-03-18T18:44:43.371Z,100676.00
2023-03-18T18:47:19.983Z,100669.47
2023-03-18T18:49:48.295Z,100674.91
2023-03-18T18:52:17.046Z,100674.31
2023-03-18T18:54:45.067Z,100674.31
2023-03-18T18:57:26.807Z,100674.19
2023-03-18T18:59:55.298Z,100676.34
2023-03-18T19:02:31.129Z,100679.75
2023-03-18T19:05:00.099Z,100681.06
2023-03-18T19:07:30.399Z,100679.75
2023-03-18T19:09:58.768Z,100686.25
2023-03-18T19:12:27.651Z,100687.06
2023-03-18T19:14:56.050Z,100687.31
2023-03-18T19:17:25.853Z,100691.31
2023-03-18T19:19:55.634Z,100700.66
2023-03-18T19:22:24.544Z,100702.06
2023-03-18T19:24:52.757Z,100709.00
2023-03-18T19:27:25.688Z,100707.84
2023-03-18T19:29:56.871Z,100712.19
2023-03-18T19:32:26.353Z,100718.53
2023-03-18T19:34:56.033Z,100716.28
2023-03-18T19:37:27.375Z,100717.44
2023-03-18T19:39:55.757Z,100734.44
2023-03-18T19:42:24.091Z,100732.63
2023-03-18T19:44:54.722Z,100730.13
2023-03-18T19:47:25.625Z,100736.84
2023-03-18T19:49:55.244Z,100737.16
2023-03-18T19:52:26.541Z,100733.00
2023-03-18T19:54:56.316Z,100734.31
2023-03-18T19:57:28.356Z,100739.59
2023-03-18T19:59:58.508Z,100736.28
2023-03-18T20:02:28.821Z,100737.56
2023-03-18T20:05:00.266Z,100744.97
2023-03-18T20:07:29.899Z,100746.84
2023-03-18T20:09:58.249Z,100748.34
2023-03-18T20:12:34.379Z,100763.91
2023-03-18T20:15:02.712Z,100750.94
2023-03-18T20:17:35.077Z,100750.53
2023-03-18T20:20:05.633Z,100764.59
2023-03-18T20:22:35.783Z,100761.25
2023-03-18T20:25:05.496Z,100758.16
2023-03-18T20:27:33.853Z,100770.53
2023-03-18T20:30:02.154Z,100772.88
2023-03-18T20:32:31.750Z,100778.53
2023-03-18T20:35:02.870Z,100782.28
2023-03-18T20:37:36.173Z,100779.41
2023-03-18T20:40:08.499Z,100785.09
2023-03-18T20:42:36.767Z,100782.75
2023-03-18T20:45:06.625Z,100789.69
2023-03-18T20:47:34.783Z,100790.56
2023-03-18T20:50:03.300Z,100791.63
2023-03-18T20:52:33.079Z,100792.06
2023-03-18T20:55:01.559Z,100801.69
2023-03-18T20:57:29.808Z,100808.81
2023-03-18T20:59:58.281Z,100812.56
2023-03-18T21:02:31.698Z,100809.66
2023-03-18T21:05:01.997Z,100812.25
2023-03-18T21:07:32.193Z,100813.06
2023-03-18T21:10:00.728Z,100814.34
2023-03-18T21:12:28.937Z,100809.94
2023-03-18T21:14:57.107Z,100816.81
2023-03-18T21:17:27.216Z,100820.22
2023-03-18T21:20:05.026Z,100807.47
2023-03-18T21:22:41.191Z,100812.91
2023-03-18T21:25:19.678Z,100818.97
2023-03-18T21:27:48.260Z,100819.81
2023-03-18T21:30:18.346Z,100823.19
2023-03-18T21:32:47.340Z,100821.94
2023-03-18T21:35:18.694Z,100825.28
2023-03-18T21:37:48.076Z,100822.41
2023-03-18T21:40:18.621Z,100830.53
2023-03-18T21:42:47.486Z,100829.34
2023-03-18T21:45:18.763Z,100834.97
2023-03-18T21:47:47.001Z,100835.84
2023-03-18T21:50:21.496Z,100831.63
2023-03-18T21:52:51.430Z,100835.84
2023-03-18T21:55:20.855Z,100831.03
2023-03-18T21:57:49.590Z,100828.75
2023-03-18T22:00:20.515Z,100837.16
2023-03-18T22:02:49.076Z,100834.88
2023-03-18T22:05:19.061Z,100826.75
2023-03-18T22:07:47.744Z,100828.25
2023-03-18T22:10:19.134Z,100831.78
2023-03-18T22:12:47.250Z,100836.81
2023-03-18T22:15:36.014Z,100829.72
2023-03-18T22:18:05.105Z,100840.16
2023-03-18T22:20:35.096Z,100846.66
2023-03-18T22:23:03.550Z,100850.41
2023-03-18T22:25:36.550Z,100843.53
2023-03-18T22:28:04.998Z,100842.69
2023-03-18T22:30:35.529Z,100841.69
2023-03-18T22:33:05.575Z,100842.31
2023-03-18T22:35:34.827Z,100845.66
2023-03-18T22:38:03.654Z,100843.81
2023-03-18T22:40:33.336Z,100845.25
2023-03-18T22:43:02.555Z,100851.94
2023-03-18T22:45:32.540Z,100847.97
2023-03-18T22:48:03.349Z,100847.38
2023-03-18T22:50:35.651Z,100848.00
2023-03-18T22:53:06.770Z,100851.53
2023-03-18T22:55:38.969Z,100850.09
2023-03-18T22:58:07.505Z,100856.75
2023-03-18T23:00:38.124Z,100859.91
2023-03-18T23:03:12.917Z,100851.97
2023-03-18T23:05:41.578Z,100856.56
2023-03-18T23:08:09.840Z,100859.72
2023-03-18T23:10:39.486Z,100866.38
2023-03-18T23:13:14.319Z,100864.28
2023-03-18T23:15:42.453Z,100861.81
2023-03-18T23:18:14.409Z,100868.69
2023-03-18T23:20:42.988Z,100857.44
2023-03-18T23:23:11.744Z,100861.22
2023-03-18T23:25:42.921Z,100860.16
2023-03-18T23:28:11.706Z,100856.41
2023-03-18T23:30:41.783Z,100862.44
2023-03-18T23:33:10.905Z,100864.13
2023-03-18T23:35:39.123Z,100865.78
2023-03-18T23:38:07.813Z,100870.38
2023-03-18T23:40:35.799Z,100868.09
2023-03-18T23:43:05.214Z,100868.31
2023-03-18T23:45:33.524Z,100872.06
2023-03-18T23:48:01.757Z,100876.22
2023-03-18T23:50:29.831Z,100881.63
2023-03-18T23:52:57.907Z,100880.41
2023-03-18T23:55:34.328Z,100886.66
2023-03-18T23:58:03.835Z,100883.53
